VCCC/RML METAR and TAF weather

Enter ICAO airport designator
Station Type Date Time Source
VCCC METAR 2019/02/13 07:00 UTC NOAA

VCCC 130700Z VRB02KT 9999 SCT018 32/21 Q1012 A2991


Station Type Date Time Source
VCCC Decoded METAR 2019/02/13 07:00 UTC NOAA

Ratmalana, Sri Lanka (VCCC) 06-49N 079-53E 5M
Feb 13, 2019 - 02:00 AM EST / 2019.02.13 0700 UTC
Wind: Variable at 2 MPH (2 KT):0
Visibility: greater than 7 mile(s):0
Sky conditions: partly cloudy
Temperature: 89 F (32 C)
Dew Point: 69 F (21 C)
Relative Humidity: 52%
Pressure (altimeter): 29.91 in. Hg (1012 hPa)
ob: VCCC 130700Z VRB02KT 9999 SCT018 32/21 Q1012 A2991
cycle: 7

Station Type Date Time Source
VCCC TAF UTC NOAA

Error!

Example: see airport list